Vadito, NM

7:17 AM MDT on October 30, 2014 (GMT -0600)
Bell Mountain Ranch | Change Station
CLOSE
Current Station
Personal Weather Station
Location: Vadito, NM
Elevation: 7660 ft
Nearby Weather Stations

Elev 7660 ft 36.19 °N, 105.66 °W | Updated 2 minutes ago

Clear
Clear
32.0 °F
Feels Like 24 °F
N
9.8
Wind Variable Wind from East
Gusts 11.4 mph

Today
High -- | Low -- °F
--% Chance of Precip.
Yesterday
High -- | Low -- °F
Precip. -- in
7:23 AM 6:08 PM
Waxing Crescent, 44% visible
Pressure 30.39 in
Visibility 10.0 miles
Clouds Clear
Windchill 24 °F
Dew Point 16 °F
Humidity 51%
Rainfall 0.00 in
Snow Depth Not available.
UV 0 out of 12
Pollen 3.30 out of 12
Air Quality Not available.
Flu Activity Not available.
METAR KSKX 301255Z AUTO 05005KT 10SM CLR M01/M12 A3039 RMK AO1

More Conditions Fewer Conditions

Pressure 30.39 in
Visibility 10.0 miles
Clouds Clear
Windchill 24 °F
Dew Point 16 °F
Humidity 51%
Rainfall 0.00 in
Snow Depth Not available.
UV 0 out of 12
Pollen 3.30 out of 12
Air Quality Not available.
Flu Activity Not available.
METAR KSKX 301255Z AUTO 05005KT 10SM CLR M01/M12 A3039 RMK AO1

More Conditions Fewer Conditions

10-Day Weather Forecast

Almanac

Astronomy

Oct. 30, 2014 Rise Set
Actual Time
Civil Twilight
Nautical Twilight
Astronomical Twilight
Moon
Length of Visible Light
Length of Day
Tomorrow will be .
, % of the Moon is Illuminated

Today's Extremes

State Highs State Lows

Community

WunderPhotos

Upload Photos

1,766,354 photos uploaded!

WunderBlogs® & News

Nearby

Air Quality

  Air Quality AQ Index Pollutant
Not available.

Snow Depth

Station Depth Elevation

Earthquake Activity

City Distance Mag. Time & Date
Minimum magnitude displayed is 2.5.

Coastal Water Temperatures

Place Temperature

Nearby Weather Stations